createdAt,value
2023-01-30T00:01:33.292Z,3.50
2023-01-30T00:04:01.762Z,3.60
2023-01-30T00:06:29.869Z,3.60
2023-01-30T00:08:57.806Z,3.70
2023-01-30T00:11:28.849Z,3.70
2023-01-30T00:13:57.107Z,3.70
2023-01-30T00:16:25.323Z,3.70
2023-01-30T00:18:53.306Z,3.60
2023-01-30T00:21:21.220Z,3.60
2023-01-30T00:23:49.021Z,3.60
2023-01-30T00:26:17.016Z,3.60
2023-01-30T00:28:45.097Z,3.70
2023-01-30T00:31:12.811Z,3.80
2023-01-30T00:33:40.548Z,3.80
2023-01-30T00:36:10.820Z,3.90
2023-01-30T00:38:38.788Z,3.90
2023-01-30T00:41:11.231Z,3.90
2023-01-30T00:43:57.822Z,3.90
2023-01-30T00:47:00.171Z,3.80
2023-01-30T00:49:28.053Z,3.90
2023-01-30T00:51:55.787Z,4.00
2023-01-30T00:54:23.816Z,4.00
2023-01-30T00:56:52.412Z,4.00
2023-01-30T00:59:20.262Z,4.00
2023-01-30T01:01:48.004Z,4.10
2023-01-30T01:04:16.025Z,4.10
2023-01-30T01:06:43.764Z,4.10
2023-01-30T01:09:12.013Z,4.10
2023-01-30T01:11:41.251Z,4.10
2023-01-30T01:14:09.367Z,4.10
2023-01-30T01:16:37.752Z,4.00
2023-01-30T01:19:06.269Z,4.10
2023-01-30T01:21:34.556Z,4.00
2023-01-30T01:24:02.488Z,4.00
2023-01-30T01:26:30.330Z,4.00
2023-01-30T01:28:59.723Z,4.10
2023-01-30T01:31:28.006Z,4.10
2023-01-30T01:33:57.808Z,4.00
2023-01-30T01:36:52.307Z,4.00
2023-01-30T01:39:14.680Z,4.00
2023-01-30T01:41:42.971Z,4.10
2023-01-30T01:44:15.361Z,4.10
2023-01-30T01:47:00.127Z,4.20
2023-01-30T01:49:37.967Z,4.20
2023-01-30T01:52:16.203Z,4.20
2023-01-30T01:54:59.881Z,4.20
2023-01-30T01:57:50.313Z,4.20
2023-01-30T02:00:22.226Z,4.20
2023-01-30T02:03:17.592Z,4.20
2023-01-30T02:05:57.298Z,4.30
2023-01-30T02:08:48.114Z,4.30
2023-01-30T02:11:57.364Z,4.30
2023-01-30T02:14:26.344Z,4.30
2023-01-30T02:16:53.997Z,4.30
2023-01-30T02:19:54.890Z,4.30
2023-01-30T02:23:18.799Z,4.30
2023-01-30T02:27:10.759Z,4.40
2023-01-30T02:30:51.110Z,4.40
2023-01-30T02:34:16.503Z,4.40
2023-01-30T02:37:32.313Z,4.60
2023-01-30T02:40:39.174Z,4.60
2023-01-30T02:43:59.773Z,4.60
2023-01-30T02:47:07.111Z,4.60
2023-01-30T02:50:23.342Z,4.70
2023-01-30T02:52:52.384Z,4.80
2023-01-30T02:55:28.391Z,4.80
2023-01-30T02:57:57.575Z,4.90
2023-01-30T03:01:21.219Z,5.00
2023-01-30T03:04:32.637Z,5.00
2023-01-30T03:07:35.494Z,4.90
2023-01-30T03:10:49.741Z,4.90
2023-01-30T03:13:58.115Z,4.90
2023-01-30T03:16:41.787Z,5.00
2023-01-30T03:19:14.190Z,5.00
2023-01-30T03:21:46.655Z,5.10
2023-01-30T03:24:16.595Z,5.20
2023-01-30T03:27:08.258Z,5.20
2023-01-30T03:29:39.334Z,5.10
2023-01-30T03:32:07.802Z,5.10
2023-01-30T03:34:35.571Z,5.10
2023-01-30T03:37:05.586Z,5.10
2023-01-30T03:39:36.890Z,5.10
2023-01-30T03:42:08.328Z,5.10
2023-01-30T03:44:36.510Z,5.10
2023-01-30T03:47:04.191Z,5.10
2023-01-30T03:49:32.877Z,5.10
2023-01-30T03:52:00.840Z,5.10
2023-01-30T03:54:28.869Z,5.10
2023-01-30T03:56:56.593Z,5.10
2023-01-30T03:59:24.774Z,5.10
2023-01-30T04:02:00.199Z,5.20
2023-01-30T04:04:28.293Z,5.10
2023-01-30T04:06:56.970Z,5.10
2023-01-30T04:09:25.263Z,5.10
2023-01-30T04:11:54.063Z,5.10
2023-01-30T04:14:21.830Z,5.10
2023-01-30T04:17:12.407Z,5.10
2023-01-30T04:20:20.098Z,5.10
2023-01-30T04:22:55.469Z,5.10
2023-01-30T04:25:25.868Z,5.10
2023-01-30T04:27:54.106Z,5.20
2023-01-30T04:30:25.919Z,5.20
2023-01-30T04:33:03.319Z,5.20
2023-01-30T04:35:31.091Z,5.10
2023-01-30T04:37:59.266Z,5.20
2023-01-30T04:40:29.152Z,5.20
2023-01-30T04:42:57.502Z,5.10
2023-01-30T04:45:57.829Z,5.10
2023-01-30T04:48:27.081Z,5.20
2023-01-30T04:50:58.963Z,5.20
2023-01-30T04:53:27.579Z,5.10
2023-01-30T04:55:55.542Z,5.20
2023-01-30T04:58:23.803Z,5.20
2023-01-30T05:00:51.916Z,5.20
2023-01-30T05:03:19.807Z,5.20
2023-01-30T05:05:48.620Z,5.10
2023-01-30T05:08:17.071Z,5.20
2023-01-30T05:10:45.028Z,5.20
2023-01-30T05:13:12.866Z,5.20
2023-01-30T05:15:41.275Z,5.30
2023-01-30T05:18:09.850Z,5.30
2023-01-30T05:20:37.689Z,5.30
2023-01-30T05:23:05.354Z,5.30
2023-01-30T05:25:33.078Z,5.30
2023-01-30T05:28:00.848Z,5.40
2023-01-30T05:30:28.641Z,5.40
2023-01-30T05:32:59.121Z,5.50
2023-01-30T05:35:26.905Z,5.50
2023-01-30T05:37:54.782Z,5.50
2023-01-30T05:40:22.480Z,5.40
2023-01-30T05:42:50.273Z,5.50
2023-01-30T05:45:18.215Z,5.50
2023-01-30T05:47:53.660Z,5.60
2023-01-30T05:50:24.294Z,5.60
2023-01-30T05:52:52.156Z,5.60
2023-01-30T05:55:20.521Z,5.60
2023-01-30T05:57:48.598Z,5.60
2023-01-30T06:00:17.390Z,5.60
2023-01-30T06:02:45.191Z,5.60
2023-01-30T06:05:13.057Z,5.60
2023-01-30T06:07:40.832Z,5.70
2023-01-30T06:10:09.948Z,5.70
2023-01-30T06:12:37.758Z,5.80
2023-01-30T06:15:07.713Z,5.80
2023-01-30T06:17:35.474Z,5.80
2023-01-30T06:20:04.332Z,5.80
2023-01-30T06:22:31.950Z,5.90
2023-01-30T06:25:00.209Z,5.90
2023-01-30T06:27:30.801Z,5.90
2023-01-30T06:29:58.604Z,6.00
2023-01-30T06:32:26.390Z,5.90
2023-01-30T06:34:54.295Z,6.00
2023-01-30T06:37:22.127Z,6.00
2023-01-30T06:39:49.827Z,6.00
2023-01-30T06:42:17.770Z,6.10
2023-01-30T06:44:45.485Z,6.10
2023-01-30T06:47:13.359Z,6.10
2023-01-30T06:49:41.269Z,6.10
2023-01-30T06:52:09.887Z,6.10
2023-01-30T06:54:37.640Z,6.10
2023-01-30T06:57:05.425Z,6.10
2023-01-30T06:59:33.189Z,6.10
2023-01-30T07:02:00.985Z,6.10
2023-01-30T07:04:28.829Z,6.20
2023-01-30T07:06:57.351Z,6.20
2023-01-30T07:09:25.384Z,6.20
2023-01-30T07:11:53.453Z,6.30
2023-01-30T07:14:21.502Z,6.20
2023-01-30T07:16:49.339Z,6.20
2023-01-30T07:19:17.211Z,6.20
2023-01-30T07:21:45.391Z,6.20
2023-01-30T07:24:13.751Z,6.20
2023-01-30T07:26:41.753Z,6.20
2023-01-30T07:29:09.642Z,6.20
2023-01-30T07:31:37.447Z,6.20
2023-01-30T07:34:05.727Z,6.30
2023-01-30T07:36:35.243Z,6.20
2023-01-30T07:39:05.391Z,6.20
2023-01-30T07:41:33.265Z,6.10
2023-01-30T07:44:03.285Z,6.10
2023-01-30T07:46:35.114Z,6.10
2023-01-30T07:49:05.931Z,6.10
2023-01-30T07:51:34.219Z,6.00
2023-01-30T07:54:04.171Z,6.00
2023-01-30T07:56:31.891Z,6.10
2023-01-30T07:58:59.723Z,6.20
2023-01-30T08:01:27.710Z,6.20
2023-01-30T08:03:55.519Z,6.30
2023-01-30T08:06:23.756Z,6.30
2023-01-30T08:08:51.492Z,6.30
2023-01-30T08:11:19.281Z,6.40
2023-01-30T08:13:47.595Z,6.40
2023-01-30T08:16:15.506Z,6.30
2023-01-30T08:18:43.240Z,6.40
2023-01-30T08:21:12.318Z,6.40
2023-01-30T08:23:40.197Z,6.40
2023-01-30T08:26:10.024Z,6.50
2023-01-30T08:28:37.985Z,6.40
2023-01-30T08:31:13.830Z,6.40
2023-01-30T08:33:45.372Z,6.40
2023-01-30T08:36:13.410Z,6.40
2023-01-30T08:38:41.289Z,6.40
2023-01-30T08:41:09.911Z,6.50
2023-01-30T08:43:37.740Z,6.50
2023-01-30T08:46:05.983Z,6.50
2023-01-30T08:48:48.562Z,6.50
2023-01-30T08:51:16.975Z,6.50
2023-01-30T08:53:44.661Z,6.50
2023-01-30T08:56:12.269Z,6.50
2023-01-30T08:58:43.841Z,6.50
2023-01-30T09:01:11.648Z,6.60
2023-01-30T09:03:40.645Z,6.60
2023-01-30T09:06:09.347Z,6.60
2023-01-30T09:08:37.483Z,6.70
2023-01-30T09:11:07.302Z,6.70
2023-01-30T09:13:35.978Z,6.70
2023-01-30T09:16:06.609Z,6.70
2023-01-30T09:18:34.335Z,6.80
2023-01-30T09:21:06.609Z,6.70
2023-01-30T09:23:34.643Z,6.70
2023-01-30T09:26:04.496Z,6.70
2023-01-30T09:28:34.512Z,6.70
2023-01-30T09:31:05.097Z,6.80
2023-01-30T09:33:32.978Z,6.80
2023-01-30T09:36:01.004Z,6.90
2023-01-30T09:38:28.807Z,6.90
2023-01-30T09:41:41.611Z,6.90
2023-01-30T09:45:07.373Z,6.80
2023-01-30T09:48:31.125Z,6.70
2023-01-30T09:52:12.227Z,6.70
2023-01-30T09:54:46.066Z,6.70
2023-01-30T09:57:26.183Z,6.70
2023-01-30T10:00:32.922Z,6.70
2023-01-30T10:04:16.113Z,6.80
2023-01-30T10:07:18.428Z,7.00
2023-01-30T10:10:32.528Z,7.00
2023-01-30T10:14:04.524Z,7.00
2023-01-30T10:17:23.647Z,7.10
2023-01-30T10:21:12.040Z,7.10
2023-01-30T10:24:19.927Z,7.10
2023-01-30T10:26:49.380Z,6.90
2023-01-30T10:29:50.383Z,6.90
2023-01-30T10:32:39.379Z,6.90
2023-01-30T10:35:39.429Z,6.90
2023-01-30T10:38:51.215Z,7.00
2023-01-30T10:41:38.096Z,6.90
2023-01-30T10:44:18.678Z,7.00
2023-01-30T10:47:07.936Z,7.00
2023-01-30T10:50:12.099Z,7.10
2023-01-30T10:53:26.323Z,7.10
2023-01-30T10:56:18.972Z,7.00
2023-01-30T10:59:24.154Z,7.10
2023-01-30T11:02:26.321Z,7.10
2023-01-30T11:05:17.089Z,7.30
2023-01-30T11:07:49.410Z,7.20
2023-01-30T11:10:27.125Z,7.10
2023-01-30T11:13:21.850Z,7.20
2023-01-30T11:15:58.482Z,7.20
2023-01-30T11:19:17.195Z,7.20
2023-01-30T11:21:43.091Z,7.20
2023-01-30T11:24:30.943Z,7.10
2023-01-30T11:27:28.500Z,7.10
2023-01-30T11:30:20.569Z,7.20
2023-01-30T11:32:50.839Z,7.20
2023-01-30T11:35:30.090Z,7.30
2023-01-30T11:38:31.312Z,7.30
2023-01-30T11:41:11.231Z,7.30
2023-01-30T11:43:40.777Z,7.30
2023-01-30T11:46:14.217Z,7.20
2023-01-30T11:49:02.037Z,6.90
2023-01-30T11:51:54.085Z,6.80
2023-01-30T11:54:38.102Z,6.80
2023-01-30T11:57:16.464Z,7.00
2023-01-30T12:00:06.512Z,7.10
2023-01-30T12:02:39.089Z,7.20
2023-01-30T12:05:33.144Z,7.30
2023-01-30T12:08:43.821Z,7.30
2023-01-30T12:11:45.346Z,7.40
2023-01-30T12:14:49.434Z,7.40
2023-01-30T12:17:52.823Z,7.50
2023-01-30T12:21:01.352Z,7.50
2023-01-30T12:23:46.467Z,7.60
2023-01-30T12:26:37.890Z,7.60
2023-01-30T12:29:54.294Z,7.60
2023-01-30T12:32:32.218Z,7.60
2023-01-30T12:35:01.945Z,7.60
2023-01-30T12:38:39.216Z,7.60
2023-01-30T12:45:25.925Z,7.80
2023-01-30T12:48:29.789Z,7.70
2023-01-30T12:52:41.153Z,7.70
2023-01-30T12:56:02.880Z,7.90
2023-01-30T12:59:19.015Z,7.90
2023-01-30T13:03:18.577Z,8.00
2023-01-30T13:06:33.520Z,8.10
2023-01-30T13:09:51.826Z,8.10
2023-01-30T13:12:56.170Z,8.20
2023-01-30T13:15:46.578Z,8.20
2023-01-30T13:19:22.959Z,8.10
2023-01-30T13:22:45.117Z,8.10
2023-01-30T13:26:08.665Z,8.00
2023-01-30T13:28:51.474Z,8.00
2023-01-30T13:31:31.735Z,7.80
2023-01-30T13:34:36.875Z,7.80
2023-01-30T13:37:18.872Z,7.80
2023-01-30T13:40:28.024Z,7.80
2023-01-30T13:43:41.543Z,8.00
2023-01-30T13:46:20.647Z,7.80
2023-01-30T13:49:25.225Z,7.90
2023-01-30T13:52:15.646Z,7.90
2023-01-30T13:55:26.844Z,8.10
2023-01-30T13:58:46.798Z,8.20
2023-01-30T14:01:15.365Z,8.00
2023-01-30T14:03:44.352Z,8.10
2023-01-30T14:06:38.676Z,8.20
2023-01-30T14:09:29.591Z,8.30
2023-01-30T14:12:04.589Z,8.30
2023-01-30T14:14:40.821Z,8.20
2023-01-30T14:17:18.466Z,8.00
2023-01-30T14:20:17.217Z,8.00
2023-01-30T14:23:05.303Z,8.00
2023-01-30T14:25:49.461Z,8.10
2023-01-30T14:28:17.271Z,8.00
2023-01-30T14:30:59.346Z,8.00
2023-01-30T14:33:35.549Z,7.90
2023-01-30T14:36:03.849Z,7.80
2023-01-30T14:38:39.727Z,7.80
2023-01-30T14:41:07.499Z,7.80
2023-01-30T14:43:42.700Z,7.70
2023-01-30T14:46:19.431Z,7.70
2023-01-30T14:48:50.218Z,7.90
2023-01-30T14:51:49.799Z,8.00
2023-01-30T14:54:17.599Z,8.10
2023-01-30T14:57:05.704Z,8.00
2023-01-30T14:59:45.932Z,7.90
2023-01-30T15:02:13.949Z,7.80
2023-01-30T15:05:09.594Z,7.90
2023-01-30T15:08:04.904Z,7.90
2023-01-30T15:11:24.178Z,8.00
2023-01-30T15:14:30.039Z,8.00
2023-01-30T15:17:28.662Z,7.70
2023-01-30T15:21:12.232Z,7.60
2023-01-30T15:24:28.454Z,7.60
2023-01-30T15:27:39.528Z,7.50
2023-01-30T15:31:11.219Z,7.40
2023-01-30T15:33:57.186Z,7.40
2023-01-30T15:36:36.657Z,7.40
2023-01-30T15:39:27.611Z,7.40
2023-01-30T15:42:15.330Z,7.40
2023-01-30T15:45:13.988Z,7.40
2023-01-30T15:48:39.461Z,7.50
2023-01-30T15:51:17.068Z,7.40
2023-01-30T15:53:48.012Z,7.40
2023-01-30T15:56:31.501Z,7.40
2023-01-30T15:59:03.615Z,7.40
2023-01-30T16:01:33.108Z,7.40
2023-01-30T16:04:05.083Z,7.30
2023-01-30T16:06:38.676Z,7.20
2023-01-30T16:09:23.512Z,7.20
2023-01-30T16:11:52.160Z,7.30
2023-01-30T16:14:22.904Z,7.30
2023-01-30T16:17:07.164Z,7.30
2023-01-30T16:19:39.291Z,7.30
2023-01-30T16:22:22.219Z,7.30
2023-01-30T16:24:56.111Z,7.30
2023-01-30T16:27:38.523Z,7.40
2023-01-30T16:30:09.528Z,7.40
2023-01-30T16:32:39.146Z,7.30
2023-01-30T16:35:27.386Z,7.40
2023-01-30T16:38:01.178Z,7.30
2023-01-30T16:40:46.775Z,7.20
2023-01-30T16:43:27.033Z,7.20
2023-01-30T16:46:42.048Z,7.20
2023-01-30T16:49:21.324Z,7.20
2023-01-30T16:52:00.929Z,7.10
2023-01-30T16:54:33.867Z,7.10
2023-01-30T16:57:04.047Z,7.20
2023-01-30T16:59:36.129Z,7.20
2023-01-30T17:02:07.613Z,7.20
2023-01-30T17:04:40.514Z,7.10
2023-01-30T17:07:34.906Z,7.10
2023-01-30T17:10:02.692Z,7.10
2023-01-30T17:12:43.666Z,7.10
2023-01-30T17:15:12.061Z,7.10
2023-01-30T17:17:42.109Z,7.00
2023-01-30T17:20:16.211Z,7.00
2023-01-30T17:22:53.043Z,7.00
2023-01-30T17:25:45.687Z,6.90
2023-01-30T17:28:23.602Z,6.90
2023-01-30T17:30:51.406Z,6.80
2023-01-30T17:33:19.183Z,6.80
2023-01-30T17:35:47.044Z,6.70
2023-01-30T17:38:14.924Z,6.70
2023-01-30T17:40:43.111Z,6.70
2023-01-30T17:43:13.196Z,6.60
2023-01-30T17:45:41.273Z,6.70
2023-01-30T17:48:12.939Z,6.80
2023-01-30T17:50:41.041Z,6.70
2023-01-30T17:53:08.741Z,6.70
2023-01-30T17:55:37.056Z,6.60
2023-01-30T17:58:04.993Z,6.60
2023-01-30T18:00:32.832Z,6.60
2023-01-30T18:03:00.570Z,6.50
2023-01-30T18:05:28.434Z,6.40
2023-01-30T18:07:56.070Z,6.40
2023-01-30T18:10:23.841Z,6.40
2023-01-30T18:12:52.518Z,6.30
2023-01-30T18:15:22.057Z,6.30
2023-01-30T18:17:53.280Z,6.40
2023-01-30T18:20:21.861Z,6.40
2023-01-30T18:22:49.870Z,6.40
2023-01-30T18:25:18.495Z,6.40
2023-01-30T18:27:48.161Z,6.30
2023-01-30T18:30:18.251Z,6.30
2023-01-30T18:32:53.886Z,6.30
2023-01-30T18:35:23.361Z,6.30
2023-01-30T18:37:51.919Z,6.30
2023-01-30T18:40:21.766Z,6.20
2023-01-30T18:42:50.150Z,6.10
2023-01-30T18:45:18.005Z,6.00
2023-01-30T18:47:45.819Z,5.80
2023-01-30T18:50:13.974Z,5.80
2023-01-30T18:52:41.715Z,5.60
2023-01-30T18:55:10.073Z,5.70
2023-01-30T18:57:37.888Z,5.70
2023-01-30T19:00:07.574Z,5.80
2023-01-30T19:02:35.363Z,5.60
2023-01-30T19:05:03.781Z,5.60
2023-01-30T19:07:31.648Z,5.50
2023-01-30T19:09:59.580Z,5.30
2023-01-30T19:12:45.628Z,5.20
2023-01-30T19:15:13.568Z,5.10
2023-01-30T19:17:41.339Z,5.20
2023-01-30T19:20:12.263Z,5.10
2023-01-30T19:22:40.120Z,5.10
2023-01-30T19:25:08.856Z,4.90
2023-01-30T19:27:39.406Z,4.70
2023-01-30T19:30:08.904Z,4.70
2023-01-30T19:32:36.745Z,4.70
2023-01-30T19:35:05.497Z,4.70
2023-01-30T19:37:34.104Z,4.60
2023-01-30T19:40:02.514Z,4.60
2023-01-30T19:42:30.139Z,4.70
2023-01-30T19:44:57.923Z,4.80
2023-01-30T19:47:25.844Z,4.80
2023-01-30T19:49:55.853Z,4.80
2023-01-30T19:52:23.558Z,4.60
2023-01-30T19:54:51.539Z,4.60
2023-01-30T19:57:19.310Z,4.60
2023-01-30T20:06:18.569Z,4.70
2023-01-30T20:08:50.364Z,4.60
2023-01-30T20:11:23.850Z,4.70
2023-01-30T20:13:53.528Z,4.60
2023-01-30T20:16:27.738Z,4.50
2023-01-30T20:19:05.793Z,4.40
2023-01-30T20:21:35.207Z,4.50
2023-01-30T20:24:03.651Z,4.40
2023-01-30T20:26:37.056Z,4.30
2023-01-30T20:29:09.698Z,4.30
2023-01-30T20:31:39.733Z,4.40
2023-01-30T20:34:14.169Z,4.30
2023-01-30T20:36:42.899Z,4.20
2023-01-30T20:39:11.969Z,4.20
2023-01-30T20:41:40.553Z,4.10
2023-01-30T20:44:13.787Z,4.00
2023-01-30T20:46:47.543Z,4.10
2023-01-30T20:49:24.237Z,4.00
2023-01-30T20:51:54.865Z,4.10
2023-01-30T20:54:24.503Z,4.10
2023-01-30T20:56:55.240Z,4.10
2023-01-30T20:59:27.388Z,4.10
2023-01-30T21:01:55.684Z,4.00
2023-01-30T21:04:25.219Z,4.10
2023-01-30T21:06:54.457Z,4.10
2023-01-30T21:09:24.737Z,4.00
2023-01-30T21:11:53.558Z,3.90
2023-01-30T21:14:23.671Z,3.90
2023-01-30T21:16:52.717Z,3.90
2023-01-30T21:19:21.939Z,3.90
2023-01-30T21:21:55.362Z,3.80
2023-01-30T21:24:29.562Z,3.90
2023-01-30T21:26:58.185Z,3.90
2023-01-30T21:29:29.586Z,3.90
2023-01-30T21:31:59.084Z,3.80
2023-01-30T21:34:27.023Z,3.90
2023-01-30T21:37:13.109Z,3.90
2023-01-30T21:40:00.644Z,3.90
2023-01-30T21:42:46.701Z,3.80
2023-01-30T21:45:15.596Z,3.90
2023-01-30T21:47:43.376Z,3.80
2023-01-30T21:50:11.679Z,3.80
2023-01-30T21:52:40.074Z,3.70
2023-01-30T21:55:10.104Z,3.60
2023-01-30T21:57:38.955Z,3.60
2023-01-30T22:00:08.576Z,3.50
2023-01-30T22:02:36.802Z,3.40
2023-01-30T22:05:06.851Z,3.30
2023-01-30T22:07:35.530Z,3.40
2023-01-30T22:10:03.749Z,3.40
2023-01-30T22:12:32.741Z,3.50
2023-01-30T22:15:00.678Z,3.60
2023-01-30T22:23:47.907Z,3.70
2023-01-30T22:26:20.310Z,3.80
2023-01-30T22:28:48.665Z,3.70
2023-01-30T22:31:20.172Z,3.80
2023-01-30T22:33:55.161Z,3.70
2023-01-30T22:36:30.798Z,3.70
2023-01-30T22:38:58.567Z,3.70
2023-01-30T22:41:30.970Z,3.60
2023-01-30T22:44:02.047Z,3.50
2023-01-30T22:46:37.535Z,3.40
2023-01-30T22:49:09.479Z,3.40
2023-01-30T22:51:41.391Z,3.30
2023-01-30T22:54:18.537Z,3.30
2023-01-30T22:56:49.580Z,3.30
2023-01-30T22:59:17.541Z,3.60
2023-01-30T23:01:53.035Z,3.80
2023-01-30T23:04:24.079Z,3.70
2023-01-30T23:06:52.743Z,3.70
2023-01-30T23:09:24.142Z,3.70
2023-01-30T23:12:16.450Z,3.60
2023-01-30T23:14:45.158Z,3.60
2023-01-30T23:17:31.302Z,3.50
2023-01-30T23:19:59.249Z,3.50
2023-01-30T23:22:27.001Z,3.40
2023-01-30T23:24:54.841Z,3.30
2023-01-30T23:27:23.250Z,3.20
2023-01-30T23:29:51.889Z,3.10
2023-01-30T23:32:20.405Z,3.10
2023-01-30T23:34:49.327Z,3.10
2023-01-30T23:37:18.477Z,3.30
2023-01-30T23:39:49.078Z,3.30
2023-01-30T23:42:16.806Z,3.10
2023-01-30T23:44:44.825Z,3.10
2023-01-30T23:47:12.577Z,3.00
2023-01-30T23:49:40.223Z,2.90
2023-01-30T23:52:08.008Z,2.90
2023-01-30T23:54:36.272Z,3.00
2023-01-30T23:57:04.237Z,2.90
2023-01-30T23:59:32.059Z,2.80
